createdAt,value
2022-11-25T00:00:27.012Z,6.42
2022-11-25T00:02:53.532Z,6.23
2022-11-25T00:05:19.986Z,6.16
2022-11-25T00:07:46.516Z,5.93
2022-11-25T00:10:13.075Z,6.27
2022-11-25T00:12:39.479Z,6.53
2022-11-25T00:15:05.887Z,6.15
2022-11-25T00:17:32.350Z,6.26
2022-11-25T00:19:58.752Z,5.98
2022-11-25T00:22:25.196Z,6.29
2022-11-25T00:24:51.609Z,5.95
2022-11-25T00:27:18.054Z,5.94
2022-11-25T00:29:44.495Z,6.05
2022-11-25T00:32:10.966Z,5.85
2022-11-25T00:34:37.539Z,5.97
2022-11-25T00:37:04.038Z,5.83
2022-11-25T00:39:30.504Z,6.26
2022-11-25T00:41:56.891Z,5.92
2022-11-25T00:44:23.259Z,5.85
2022-11-25T00:46:49.646Z,5.55
2022-11-25T00:49:16.029Z,5.57
2022-11-25T00:51:42.453Z,5.81
2022-11-25T00:54:08.843Z,5.42
2022-11-25T00:56:35.252Z,5.65
2022-11-25T00:59:01.684Z,5.83
2022-11-25T01:01:28.437Z,5.71
2022-11-25T01:03:54.949Z,5.69
2022-11-25T01:06:21.342Z,5.25
2022-11-25T01:08:47.723Z,5.90
2022-11-25T01:11:14.097Z,5.30
2022-11-25T01:13:40.481Z,5.37
2022-11-25T01:16:06.927Z,5.66
2022-11-25T01:18:33.356Z,5.65
2022-11-25T01:20:59.740Z,5.50
2022-11-25T01:23:26.229Z,5.50
2022-11-25T01:25:52.736Z,5.59
2022-11-25T01:28:19.148Z,5.46
2022-11-25T01:30:45.742Z,5.59
2022-11-25T01:33:12.213Z,5.30
2022-11-25T01:35:38.664Z,5.42
2022-11-25T01:38:05.077Z,5.30
2022-11-25T01:40:31.456Z,5.39
2022-11-25T01:42:57.852Z,5.37
2022-11-25T01:45:28.372Z,5.26
2022-11-25T01:47:55.060Z,5.62
2022-11-25T01:50:21.503Z,5.57
2022-11-25T01:52:47.910Z,5.65
2022-11-25T01:55:14.530Z,5.39
2022-11-25T01:57:40.925Z,5.40
2022-11-25T02:00:07.271Z,5.56
2022-11-25T02:02:33.778Z,5.31
2022-11-25T02:05:00.442Z,5.13
2022-11-25T02:07:27.061Z,5.18
2022-11-25T02:09:53.524Z,4.99
2022-11-25T02:12:19.968Z,5.13
2022-11-25T02:14:46.403Z,5.27
2022-11-25T02:17:12.831Z,5.07
2022-11-25T02:19:39.256Z,5.36
2022-11-25T02:22:05.669Z,5.08
2022-11-25T02:24:32.072Z,5.35
2022-11-25T02:26:58.494Z,5.25
2022-11-25T02:29:24.858Z,5.61
2022-11-25T02:31:51.310Z,5.01
2022-11-25T02:34:17.757Z,5.00
2022-11-25T02:36:44.151Z,4.91
2022-11-25T02:39:10.540Z,4.99
2022-11-25T02:41:36.989Z,4.96
2022-11-25T02:44:03.409Z,4.80
2022-11-25T02:46:29.857Z,4.99
2022-11-25T02:49:11.696Z,5.21
2022-11-25T02:51:38.247Z,5.19
2022-11-25T02:54:04.613Z,5.12
2022-11-25T02:56:31.056Z,5.05
2022-11-25T02:58:57.456Z,5.06
2022-11-25T03:01:23.986Z,4.84
2022-11-25T03:03:50.401Z,4.88
2022-11-25T03:06:16.774Z,5.27
2022-11-25T03:08:43.142Z,4.90
2022-11-25T03:11:09.531Z,5.17
2022-11-25T03:13:35.900Z,5.12
2022-11-25T03:16:02.349Z,4.92
2022-11-25T03:18:28.705Z,5.13
2022-11-25T03:20:55.070Z,4.76
2022-11-25T03:23:21.460Z,4.89
2022-11-25T03:25:47.866Z,5.04
2022-11-25T03:28:14.429Z,5.05
2022-11-25T03:30:40.811Z,5.02
2022-11-25T03:33:07.291Z,4.88
2022-11-25T03:35:33.688Z,4.75
2022-11-25T03:38:00.093Z,5.18
2022-11-25T03:40:26.465Z,4.50
2022-11-25T03:42:52.943Z,4.96
2022-11-25T03:45:19.304Z,4.80
2022-11-25T03:47:45.691Z,4.94
2022-11-25T03:50:12.207Z,4.59
2022-11-25T03:52:38.615Z,4.84
2022-11-25T03:55:05.010Z,5.13
2022-11-25T03:57:31.379Z,4.50
2022-11-25T03:59:57.727Z,4.85
2022-11-25T04:02:24.257Z,4.89
2022-11-25T04:04:50.739Z,4.75
2022-11-25T04:07:17.194Z,4.81
2022-11-25T04:09:43.681Z,4.80
2022-11-25T04:12:10.084Z,4.97
2022-11-25T04:14:36.734Z,4.94
2022-11-25T04:17:03.309Z,4.69
2022-11-25T04:19:29.766Z,4.45
2022-11-25T04:21:56.116Z,4.82
2022-11-25T04:24:22.529Z,4.66
2022-11-25T04:26:48.897Z,4.90
2022-11-25T04:29:15.295Z,4.56
2022-11-25T04:31:41.673Z,4.85
2022-11-25T04:34:08.120Z,4.75
2022-11-25T04:36:34.580Z,4.46
2022-11-25T04:39:00.978Z,4.62
2022-11-25T04:41:27.432Z,4.92
2022-11-25T04:43:53.786Z,4.80
2022-11-25T04:46:20.196Z,4.80
2022-11-25T04:48:46.714Z,4.49
2022-11-25T04:51:13.071Z,4.75
2022-11-25T04:53:39.504Z,4.63
2022-11-25T04:56:05.855Z,4.83
2022-11-25T04:58:32.211Z,4.52
2022-11-25T05:00:58.649Z,4.68
2022-11-25T05:03:25.042Z,4.64
2022-11-25T05:05:51.483Z,4.48
2022-11-25T05:08:17.843Z,4.70
2022-11-25T05:10:44.197Z,4.43
2022-11-25T05:13:10.560Z,4.62
2022-11-25T05:15:36.920Z,4.68
2022-11-25T05:18:03.342Z,4.55
2022-11-25T05:20:29.705Z,4.48
2022-11-25T05:22:56.061Z,4.59
2022-11-25T05:25:22.477Z,4.70
2022-11-25T05:27:48.821Z,4.34
2022-11-25T05:30:15.169Z,4.34
2022-11-25T05:32:41.527Z,4.38
2022-11-25T05:35:07.909Z,4.45
2022-11-25T05:37:34.268Z,4.43
2022-11-25T05:40:00.614Z,5.08
2022-11-25T05:42:26.953Z,5.91
2022-11-25T05:44:53.345Z,7.24
2022-11-25T05:47:19.732Z,6.99
2022-11-25T05:49:46.129Z,6.46
2022-11-25T05:52:12.602Z,6.48
2022-11-25T05:54:39.199Z,6.32
2022-11-25T05:57:05.703Z,6.33
2022-11-25T05:59:32.136Z,6.29
2022-11-25T06:01:58.559Z,6.47
2022-11-25T06:04:24.974Z,6.32
2022-11-25T06:06:51.357Z,6.29
2022-11-25T06:09:17.709Z,6.30
2022-11-25T06:11:44.087Z,6.12
2022-11-25T06:14:10.477Z,6.14
2022-11-25T06:16:36.986Z,5.72
2022-11-25T06:19:03.361Z,6.22
2022-11-25T06:21:29.724Z,5.78
2022-11-25T06:23:56.108Z,5.81
2022-11-25T06:26:22.478Z,6.10
2022-11-25T06:28:48.994Z,5.74
2022-11-25T06:31:15.416Z,5.75
2022-11-25T06:33:41.889Z,5.61
2022-11-25T06:36:08.267Z,5.78
2022-11-25T06:38:34.684Z,5.60
2022-11-25T06:41:01.075Z,6.00
2022-11-25T06:43:27.473Z,5.90
2022-11-25T06:45:53.931Z,5.63
2022-11-25T06:48:20.312Z,5.21
2022-11-25T06:50:46.691Z,5.39
2022-11-25T06:53:13.087Z,5.48
2022-11-25T06:55:39.473Z,5.64
2022-11-25T06:58:33.970Z,5.38
2022-11-25T07:00:52.310Z,5.42
2022-11-25T07:03:18.732Z,5.39
2022-11-25T07:05:45.154Z,5.53
2022-11-25T07:08:11.608Z,5.39
2022-11-25T07:10:38.030Z,5.23
2022-11-25T07:13:04.425Z,5.25
2022-11-25T07:15:30.885Z,5.33
2022-11-25T07:17:57.314Z,5.51
2022-11-25T07:20:23.677Z,5.13
2022-11-25T07:22:50.078Z,5.31
2022-11-25T07:25:16.443Z,5.03
2022-11-25T07:27:42.794Z,5.58
2022-11-25T07:32:55.780Z,5.07
2022-11-25T07:35:22.252Z,4.96
2022-11-25T07:37:48.672Z,5.18
2022-11-25T07:40:15.056Z,5.22
2022-11-25T07:42:41.433Z,5.20
2022-11-25T07:45:07.867Z,5.30
2022-11-25T07:47:34.222Z,5.37
2022-11-25T07:50:00.681Z,5.21
2022-11-25T07:52:27.015Z,5.16
2022-11-25T07:54:53.424Z,5.37
2022-11-25T07:57:19.852Z,5.49
2022-11-25T07:59:46.248Z,5.21
2022-11-25T08:02:12.684Z,5.24
2022-11-25T08:04:39.165Z,5.31
2022-11-25T08:07:05.611Z,5.12
2022-11-25T08:09:32.102Z,5.05
2022-11-25T08:11:58.522Z,4.98
2022-11-25T08:14:24.954Z,5.09
2022-11-25T08:16:51.354Z,5.29
2022-11-25T08:19:17.747Z,5.30
2022-11-25T08:21:44.138Z,5.22
2022-11-25T08:24:10.622Z,5.10
2022-11-25T08:26:36.988Z,5.43
2022-11-25T08:29:03.393Z,5.32
2022-11-25T08:31:29.890Z,5.19
2022-11-25T08:33:56.340Z,5.37
2022-11-25T08:36:22.725Z,5.13
2022-11-25T08:38:49.108Z,5.13
2022-11-25T08:41:15.497Z,5.13
2022-11-25T08:43:41.877Z,5.05
2022-11-25T08:46:08.504Z,5.30
2022-11-25T08:48:34.932Z,5.30
2022-11-25T08:51:01.467Z,5.57
2022-11-25T08:53:27.827Z,4.99
2022-11-25T08:55:54.224Z,5.47
2022-11-25T08:58:20.592Z,5.24
2022-11-25T09:00:46.981Z,5.08
2022-11-25T09:03:13.427Z,5.29
2022-11-25T09:05:39.843Z,5.18
2022-11-25T09:08:06.257Z,5.07
2022-11-25T09:10:32.703Z,5.03
2022-11-25T09:12:59.135Z,5.39
2022-11-25T09:15:25.575Z,5.46
2022-11-25T09:17:51.995Z,5.14
2022-11-25T09:20:18.386Z,4.93
2022-11-25T09:22:44.774Z,5.01
2022-11-25T09:25:11.140Z,5.17
2022-11-25T09:27:37.565Z,4.91
2022-11-25T09:30:03.969Z,5.10
2022-11-25T09:32:30.330Z,5.00
2022-11-25T09:34:56.683Z,4.83
2022-11-25T09:37:23.084Z,5.06
2022-11-25T09:39:49.465Z,5.15
2022-11-25T09:42:15.854Z,5.11
2022-11-25T09:44:42.215Z,4.93
2022-11-25T09:47:08.567Z,4.92
2022-11-25T09:49:35.257Z,5.17
2022-11-25T09:52:01.960Z,4.98
2022-11-25T09:54:28.336Z,4.96
2022-11-25T09:56:54.715Z,4.96
2022-11-25T09:59:21.109Z,5.12
2022-11-25T10:01:47.531Z,5.12
2022-11-25T10:04:13.969Z,4.73
2022-11-25T10:06:40.524Z,5.07
2022-11-25T10:09:07.049Z,4.76
2022-11-25T10:11:33.592Z,4.64
2022-11-25T10:13:59.938Z,4.81
2022-11-25T10:16:26.387Z,4.86
2022-11-25T10:18:52.784Z,4.57
2022-11-25T10:21:19.172Z,4.59
2022-11-25T10:23:45.576Z,4.44
2022-11-25T10:26:11.960Z,4.57
2022-11-25T10:28:38.331Z,4.55
2022-11-25T10:31:04.792Z,4.72
2022-11-25T10:33:31.224Z,4.72
2022-11-25T10:35:57.616Z,4.76
2022-11-25T10:38:23.989Z,4.48
2022-11-25T10:40:50.338Z,4.43
2022-11-25T10:43:16.735Z,4.46
2022-11-25T10:45:43.122Z,4.27
2022-11-25T10:48:09.490Z,4.34
2022-11-25T10:50:35.923Z,4.48
2022-11-25T10:53:02.304Z,4.74
2022-11-25T10:55:28.728Z,4.38
2022-11-25T10:57:55.080Z,4.40
2022-11-25T11:00:21.443Z,4.19
2022-11-25T11:02:50.883Z,4.23
2022-11-25T11:05:17.264Z,4.39
2022-11-25T11:07:43.800Z,4.12
2022-11-25T11:10:10.485Z,4.36
2022-11-25T11:12:36.983Z,4.41
2022-11-25T11:15:03.475Z,4.44
2022-11-25T11:17:35.847Z,4.18
2022-11-25T11:20:02.663Z,4.16
2022-11-25T11:22:29.016Z,4.21
2022-11-25T11:24:55.422Z,4.05
2022-11-25T11:27:21.769Z,4.27
2022-11-25T11:29:48.170Z,3.92
2022-11-25T11:32:14.538Z,4.03
2022-11-25T11:34:40.936Z,4.09
2022-11-25T11:37:07.339Z,3.88
2022-11-25T11:39:33.718Z,4.03
2022-11-25T11:42:00.087Z,4.04
2022-11-25T11:44:26.491Z,4.18
2022-11-25T11:46:52.871Z,4.04
2022-11-25T11:49:19.503Z,4.28
2022-11-25T11:51:45.911Z,4.18
2022-11-25T11:54:12.302Z,4.22
2022-11-25T11:56:38.642Z,3.87
2022-11-25T11:59:05.011Z,3.93
2022-11-25T12:01:31.435Z,3.80
2022-11-25T12:03:57.867Z,3.91
2022-11-25T12:06:24.425Z,4.20
2022-11-25T12:08:50.835Z,3.79
2022-11-25T12:11:17.376Z,3.66
2022-11-25T12:13:43.968Z,3.87
2022-11-25T12:16:10.429Z,4.13
2022-11-25T12:18:36.877Z,3.84
2022-11-25T12:21:03.261Z,3.72
2022-11-25T12:23:29.639Z,4.10
2022-11-25T12:25:55.980Z,3.82
2022-11-25T12:28:22.358Z,3.84
2022-11-25T12:30:48.858Z,3.80
2022-11-25T12:33:15.271Z,4.06
2022-11-25T12:35:41.750Z,3.84
2022-11-25T12:38:08.116Z,3.59
2022-11-25T12:40:34.459Z,3.81
2022-11-25T12:43:00.831Z,3.67
2022-11-25T12:45:27.318Z,3.71
2022-11-25T12:47:53.768Z,3.85
2022-11-25T12:50:20.154Z,3.66
2022-11-25T12:52:46.513Z,3.71
2022-11-25T12:55:14.737Z,3.64
2022-11-25T12:57:47.408Z,3.51
2022-11-25T13:00:40.312Z,3.75
2022-11-25T13:03:01.658Z,3.89
2022-11-25T13:05:43.423Z,3.65
2022-11-25T13:08:09.807Z,3.77
2022-11-25T13:10:36.212Z,3.57
2022-11-25T13:13:03.028Z,3.60
2022-11-25T13:15:30.265Z,3.43
2022-11-25T13:17:57.040Z,3.47
2022-11-25T13:20:23.568Z,3.95
2022-11-25T13:22:49.927Z,3.54
2022-11-25T13:25:16.305Z,3.59
2022-11-25T13:27:42.692Z,3.73
2022-11-25T13:30:09.133Z,3.65
2022-11-25T13:32:35.522Z,3.41
2022-11-25T13:35:01.962Z,3.53
2022-11-25T13:37:32.218Z,3.58
2022-11-25T13:40:01.389Z,3.61
2022-11-25T13:42:27.797Z,3.74
2022-11-25T13:44:54.182Z,3.42
2022-11-25T13:47:20.633Z,3.86
2022-11-25T13:49:47.006Z,3.53
2022-11-25T13:52:13.589Z,3.70
2022-11-25T13:54:40.127Z,3.55
2022-11-25T13:57:06.606Z,3.54
2022-11-25T13:59:32.976Z,3.59
2022-11-25T14:01:59.340Z,3.69
2022-11-25T14:04:25.768Z,3.61
2022-11-25T14:06:52.135Z,3.54
2022-11-25T14:09:18.542Z,3.51
2022-11-25T14:11:44.908Z,3.51
2022-11-25T14:14:11.359Z,3.43
2022-11-25T14:16:37.829Z,3.55
2022-11-25T14:19:35.237Z,3.53
2022-11-25T14:21:50.582Z,3.59
2022-11-25T14:24:16.966Z,3.52
2022-11-25T14:26:49.744Z,3.74
2022-11-25T14:29:16.685Z,3.47
2022-11-25T14:31:43.155Z,3.64
2022-11-25T14:34:09.572Z,3.74
2022-11-25T14:36:35.946Z,3.57
2022-11-25T14:39:02.346Z,3.62
2022-11-25T14:41:28.714Z,3.51
2022-11-25T14:43:55.082Z,3.51
2022-11-25T14:46:21.637Z,3.32
2022-11-25T14:48:48.185Z,3.70
2022-11-25T14:51:14.712Z,3.55
2022-11-25T14:53:47.288Z,3.53
2022-11-25T14:56:14.418Z,3.84
2022-11-25T14:58:40.801Z,3.43
2022-11-25T15:01:07.174Z,3.73
2022-11-25T15:03:33.666Z,3.79
2022-11-25T15:06:00.093Z,3.69
2022-11-25T15:08:26.489Z,3.70
2022-11-25T15:10:52.904Z,3.82
2022-11-25T15:13:19.467Z,3.79
2022-11-25T15:15:45.833Z,3.81
2022-11-25T15:18:12.219Z,3.53
2022-11-25T15:20:38.784Z,3.66
2022-11-25T15:23:05.169Z,3.72
2022-11-25T15:25:31.546Z,3.87
2022-11-25T15:27:58.021Z,4.00
2022-11-25T15:30:24.637Z,3.53
2022-11-25T15:32:51.051Z,3.46
2022-11-25T15:35:17.648Z,3.63
2022-11-25T15:37:44.010Z,3.54
2022-11-25T15:40:10.463Z,3.83
2022-11-25T15:42:36.891Z,3.65
2022-11-25T15:45:07.170Z,3.60
2022-11-25T15:47:34.914Z,3.57
2022-11-25T15:50:01.388Z,3.80
2022-11-25T15:52:27.835Z,3.70
2022-11-25T15:54:54.284Z,3.63
2022-11-25T15:57:20.721Z,3.70
2022-11-25T15:59:47.186Z,3.53
2022-11-25T16:02:13.638Z,3.58
2022-11-25T16:04:40.360Z,3.47
2022-11-25T16:07:06.790Z,3.70
2022-11-25T16:09:33.167Z,3.58
2022-11-25T16:11:59.517Z,3.56
2022-11-25T16:14:25.955Z,3.67
2022-11-25T16:16:52.457Z,3.54
2022-11-25T16:19:18.914Z,3.53
2022-11-25T16:21:45.572Z,3.54
2022-11-25T16:24:12.051Z,3.55
2022-11-25T16:26:38.544Z,3.46
2022-11-25T16:29:04.965Z,3.52
2022-11-25T16:31:31.416Z,3.54
2022-11-25T16:34:01.165Z,3.74
2022-11-25T16:36:27.721Z,3.75
2022-11-25T16:38:54.449Z,3.70
2022-11-25T16:41:20.942Z,3.35
2022-11-25T16:43:47.286Z,3.60
2022-11-25T16:46:13.727Z,3.56
2022-11-25T16:48:40.167Z,3.61
2022-11-25T16:51:06.539Z,3.73
2022-11-25T16:53:32.912Z,3.71
2022-11-25T16:55:59.314Z,3.49
2022-11-25T16:58:25.694Z,3.99
2022-11-25T17:00:52.119Z,3.73
2022-11-25T17:03:18.661Z,3.73
2022-11-25T17:05:45.088Z,4.06
2022-11-25T17:08:11.498Z,3.88
2022-11-25T17:10:37.928Z,3.64
2022-11-25T17:13:04.454Z,3.61
2022-11-25T17:15:31.114Z,3.77
2022-11-25T17:17:57.634Z,3.79
2022-11-25T17:20:23.987Z,3.96
2022-11-25T17:22:50.420Z,3.62
2022-11-25T17:25:16.758Z,3.69
2022-11-25T17:27:43.237Z,3.71
2022-11-25T17:30:09.603Z,3.72
2022-11-25T17:32:36.015Z,3.90
2022-11-25T17:35:02.423Z,3.60
2022-11-25T17:37:28.846Z,3.95
2022-11-25T17:39:55.405Z,3.76
2022-11-25T17:42:21.829Z,3.89
2022-11-25T17:44:52.859Z,3.66
2022-11-25T17:47:20.555Z,3.78
2022-11-25T17:49:46.939Z,3.78
2022-11-25T17:52:13.335Z,3.72
2022-11-25T17:54:40.247Z,3.81
2022-11-25T17:57:06.822Z,3.70
2022-11-25T17:59:33.231Z,3.67
2022-11-25T18:01:59.655Z,3.82
2022-11-25T18:04:26.257Z,3.98
2022-11-25T18:06:52.666Z,4.06
2022-11-25T18:09:19.017Z,4.23
2022-11-25T18:11:46.641Z,4.00
2022-11-25T18:14:13.397Z,3.90
2022-11-25T18:16:39.910Z,3.86
2022-11-25T18:19:06.502Z,3.88
2022-11-25T18:21:32.845Z,3.89
2022-11-25T18:23:59.301Z,3.82
2022-11-25T18:26:25.738Z,4.09
2022-11-25T18:28:52.263Z,3.97
2022-11-25T18:31:18.732Z,4.38
2022-11-25T18:33:45.170Z,3.69
2022-11-25T18:36:11.602Z,4.29
2022-11-25T18:38:37.977Z,4.10
2022-11-25T18:41:04.357Z,3.90
2022-11-25T18:43:30.727Z,4.13
2022-11-25T18:45:57.206Z,4.31
2022-11-25T18:48:23.765Z,4.22
2022-11-25T18:50:50.141Z,3.93
2022-11-25T18:53:16.534Z,3.94
2022-11-25T18:55:42.911Z,4.17
2022-11-25T18:58:09.378Z,4.01
2022-11-25T19:00:35.802Z,4.01
2022-11-25T19:03:02.300Z,4.12
2022-11-25T19:05:28.913Z,4.24
2022-11-25T19:07:55.366Z,3.89
2022-11-25T19:10:21.738Z,4.25
2022-11-25T19:12:48.102Z,4.13
2022-11-25T19:15:14.623Z,4.01
2022-11-25T19:17:41.004Z,3.82
2022-11-25T19:20:07.616Z,4.09
2022-11-25T19:22:34.022Z,4.33
2022-11-25T19:25:00.391Z,4.08
2022-11-25T19:27:26.795Z,3.95
2022-11-25T19:29:53.181Z,4.33
2022-11-25T19:32:19.902Z,4.10
2022-11-25T19:34:46.322Z,4.10
2022-11-25T19:37:12.804Z,4.11
2022-11-25T19:39:39.184Z,4.08
2022-11-25T19:42:05.674Z,4.22
2022-11-25T19:44:32.047Z,3.93
2022-11-25T19:47:15.480Z,4.03
2022-11-25T19:49:42.257Z,4.23
2022-11-25T19:52:08.666Z,3.83
2022-11-25T19:54:35.349Z,4.15
2022-11-25T19:57:01.910Z,4.16
2022-11-25T19:59:28.264Z,4.29
2022-11-25T20:01:54.783Z,4.32
2022-11-25T20:04:21.245Z,4.48
2022-11-25T20:06:47.597Z,4.03
2022-11-25T20:09:13.986Z,4.24
2022-11-25T20:11:40.348Z,4.58
2022-11-25T20:14:06.717Z,4.24
2022-11-25T20:16:33.143Z,4.30
2022-11-25T20:18:59.535Z,4.64
2022-11-25T20:21:25.960Z,4.12
2022-11-25T20:23:52.322Z,4.46
2022-11-25T20:26:18.675Z,4.42
2022-11-25T20:28:45.182Z,4.24
2022-11-25T20:31:11.818Z,4.39
2022-11-25T20:33:38.374Z,4.70
2022-11-25T20:36:04.936Z,4.52
2022-11-25T20:38:31.457Z,4.50
2022-11-25T20:40:57.801Z,4.74
2022-11-25T20:43:24.257Z,4.42
2022-11-25T20:45:50.753Z,4.50
2022-11-25T20:48:17.283Z,4.33
2022-11-25T20:50:43.954Z,4.23
2022-11-25T20:53:14.405Z,4.22
2022-11-25T20:55:42.040Z,4.43
2022-11-25T20:58:08.441Z,4.47
2022-11-25T21:00:34.879Z,4.27
2022-11-25T21:03:01.272Z,4.53
2022-11-25T21:05:27.636Z,4.45
2022-11-25T21:07:54.063Z,4.59
2022-11-25T21:10:20.490Z,4.64
2022-11-25T21:12:46.891Z,4.52
2022-11-25T21:15:13.272Z,4.28
2022-11-25T21:17:39.702Z,4.47
2022-11-25T21:20:06.106Z,4.37
2022-11-25T21:22:36.758Z,4.23
2022-11-25T21:25:06.190Z,4.45
2022-11-25T21:27:32.554Z,4.21
2022-11-25T21:29:58.986Z,3.97
2022-11-25T21:32:25.417Z,4.37
2022-11-25T21:34:51.772Z,4.28
2022-11-25T21:37:18.186Z,4.24
2022-11-25T21:39:44.619Z,4.25
2022-11-25T21:42:11.025Z,3.99
2022-11-25T21:44:37.607Z,4.15
2022-11-25T21:47:04.134Z,4.41
2022-11-25T21:49:30.593Z,4.59
2022-11-25T21:51:57.041Z,4.50
2022-11-25T21:54:23.462Z,4.52
2022-11-25T21:56:49.811Z,4.50
2022-11-25T21:59:16.222Z,4.51
2022-11-25T22:01:42.605Z,4.47
2022-11-25T22:04:09.002Z,4.40
2022-11-25T22:06:35.362Z,4.35
2022-11-25T22:09:01.792Z,4.34
2022-11-25T22:11:29.496Z,4.64
2022-11-25T22:13:56.032Z,4.46
2022-11-25T22:16:22.501Z,4.30
2022-11-25T22:18:49.055Z,4.51
2022-11-25T22:21:15.440Z,4.60
2022-11-25T22:23:41.826Z,4.62
2022-11-25T22:26:08.222Z,4.82
2022-11-25T22:28:34.633Z,4.41
2022-11-25T22:31:01.041Z,4.62
2022-11-25T22:33:27.681Z,4.70
2022-11-25T22:35:54.124Z,4.59
2022-11-25T22:38:20.537Z,4.78
2022-11-25T22:40:46.943Z,4.53
2022-11-25T22:43:13.310Z,4.58
2022-11-25T22:45:39.758Z,4.45
2022-11-25T22:48:06.138Z,4.55
2022-11-25T22:50:32.603Z,4.58
2022-11-25T22:52:58.970Z,4.50
2022-11-25T22:55:25.354Z,4.77
2022-11-25T22:57:51.717Z,4.55
2022-11-25T23:00:18.106Z,4.77
2022-11-25T23:02:44.509Z,4.84
2022-11-25T23:05:10.882Z,4.54
2022-11-25T23:07:37.341Z,4.50
2022-11-25T23:10:03.993Z,4.82
2022-11-25T23:12:30.454Z,4.84
2022-11-25T23:14:56.918Z,5.04
2022-11-25T23:17:23.289Z,4.81
2022-11-25T23:19:49.661Z,4.56
2022-11-25T23:22:16.051Z,4.47
2022-11-25T23:24:42.449Z,4.75
2022-11-25T23:27:08.882Z,4.82
2022-11-25T23:29:35.235Z,4.61
2022-11-25T23:32:01.727Z,4.84
2022-11-25T23:34:28.161Z,4.73
2022-11-25T23:36:54.562Z,4.79
2022-11-25T23:39:20.931Z,4.82
2022-11-25T23:41:47.298Z,4.97
2022-11-25T23:44:13.643Z,4.72
2022-11-25T23:46:40.074Z,4.83
2022-11-25T23:49:06.455Z,4.70
2022-11-25T23:51:32.839Z,4.45
2022-11-25T23:53:59.199Z,4.74
2022-11-25T23:56:25.559Z,4.89
2022-11-25T23:58:51.933Z,4.77
